sensor_id;sensor_type;location;lat;lon;timestamp;pressure;altitude;pressure_sealevel;temperature;humidity
77770;BME280;66961;51.482;9.160;2024-01-30T00:00:28;100528.09;;;2.99;99.32
77770;BME280;66961;51.482;9.160;2024-01-30T00:02:54;100529.31;;;2.94;100.00
77770;BME280;66961;51.482;9.160;2024-01-30T00:05:19;100522.94;;;2.84;100.00
77770;BME280;66961;51.482;9.160;2024-01-30T00:07:44;100524.25;;;2.77;100.00
77770;BME280;66961;51.482;9.160;2024-01-30T00:10:09;100522.41;;;2.79;100.00
77770;BME280;66961;51.482;9.160;2024-01-30T00:12:35;100533.88;;;2.90;100.00
77770;BME280;66961;51.482;9.160;2024-01-30T00:15:00;100522.47;;;2.91;100.00
77770;BME280;66961;51.482;9.160;2024-01-30T00:17:25;100514.75;;;3.44;100.00
77770;BME280;66961;51.482;9.160;2024-01-30T00:19:51;100533.81;;;3.60;100.00
77770;BME280;66961;51.482;9.160;2024-01-30T00:22:16;100524.38;;;3.57;100.00
77770;BME280;66961;51.482;9.160;2024-01-30T00:24:41;100532.31;;;3.56;99.95
77770;BME280;66961;51.482;9.160;2024-01-30T00:27:07;100529.81;;;3.54;99.72
77770;BME280;66961;51.482;9.160;2024-01-30T00:29:33;100529.72;;;3.56;100.00
77770;BME280;66961;51.482;9.160;2024-01-30T00:31:58;100539.91;;;3.60;99.97
77770;BME280;66961;51.482;9.160;2024-01-30T00:34:23;100535.50;;;3.61;99.53
77770;BME280;66961;51.482;9.160;2024-01-30T00:36:48;100530.25;;;3.61;99.26
77770;BME280;66961;51.482;9.160;2024-01-30T00:39:14;100536.09;;;3.64;98.67
77770;BME280;66961;51.482;9.160;2024-01-30T00:41:39;100531.47;;;3.55;99.06
77770;BME280;66961;51.482;9.160;2024-01-30T00:44:04;100533.91;;;3.58;99.46
77770;BME280;66961;51.482;9.160;2024-01-30T00:46:29;100532.31;;;3.56;97.58
77770;BME280;66961;51.482;9.160;2024-01-30T00:48:55;100523.38;;;3.46;98.52
77770;BME280;66961;51.482;9.160;2024-01-30T00:51:20;100530.53;;;3.56;98.16
77770;BME280;66961;51.482;9.160;2024-01-30T00:53:45;100535.78;;;3.56;98.75
77770;BME280;66961;51.482;9.160;2024-01-30T00:56:11;100539.47;;;3.66;96.96
77770;BME280;66961;51.482;9.160;2024-01-30T00:58:36;100536.75;;;3.68;97.31
77770;BME280;66961;51.482;9.160;2024-01-30T01:01:01;100538.13;;;3.74;97.54
77770;BME280;66961;51.482;9.160;2024-01-30T01:03:26;100539.94;;;3.86;97.25
77770;BME280;66961;51.482;9.160;2024-01-30T01:05:52;100544.25;;;3.87;97.03
77770;BME280;66961;51.482;9.160;2024-01-30T01:08:17;100531.53;;;3.81;96.56
77770;BME280;66961;51.482;9.160;2024-01-30T01:10:42;100528.78;;;3.70;96.97
77770;BME280;66961;51.482;9.160;2024-01-30T01:13:07;100533.63;;;3.63;96.80
77770;BME280;66961;51.482;9.160;2024-01-30T01:15:33;100535.91;;;3.67;97.63
77770;BME280;66961;51.482;9.160;2024-01-30T01:17:58;100534.78;;;3.72;97.97
77770;BME280;66961;51.482;9.160;2024-01-30T01:20:26;100529.91;;;3.65;97.34
77770;BME280;66961;51.482;9.160;2024-01-30T01:22:51;100531.78;;;3.90;96.81
77770;BME280;66961;51.482;9.160;2024-01-30T01:25:17;100531.16;;;3.87;97.13
77770;BME280;66961;51.482;9.160;2024-01-30T01:27:42;100468.13;;;3.49;96.80
77770;BME280;66961;51.482;9.160;2024-01-30T01:30:09;100529.88;;;3.80;96.96
77770;BME280;66961;51.482;9.160;2024-01-30T01:32:35;100530.41;;;3.85;97.08
77770;BME280;66961;51.482;9.160;2024-01-30T01:35:00;100523.03;;;3.77;96.82
77770;BME280;66961;51.482;9.160;2024-01-30T01:37:26;100524.75;;;3.91;96.96
77770;BME280;66961;51.482;9.160;2024-01-30T01:39:51;100516.19;;;4.02;95.95
77770;BME280;66961;51.482;9.160;2024-01-30T01:42:16;100523.22;;;4.01;95.99
77770;BME280;66961;51.482;9.160;2024-01-30T01:44:41;100518.69;;;4.03;95.41
77770;BME280;66961;51.482;9.160;2024-01-30T01:47:07;100516.81;;;4.05;94.99
77770;BME280;66961;51.482;9.160;2024-01-30T01:49:32;100516.28;;;4.00;95.82
77770;BME280;66961;51.482;9.160;2024-01-30T01:51:58;100513.25;;;4.06;94.97
77770;BME280;66961;51.482;9.160;2024-01-30T01:54:23;100504.22;;;3.97;95.42
77770;BME280;66961;51.482;9.160;2024-01-30T01:56:51;100511.78;;;4.02;95.44
77770;BME280;66961;51.482;9.160;2024-01-30T01:59:17;100512.19;;;4.09;95.27
77770;BME280;66961;51.482;9.160;2024-01-30T02:01:43;100523.63;;;4.08;95.06
77770;BME280;66961;51.482;9.160;2024-01-30T02:04:09;100514.09;;;4.07;94.60
77770;BME280;66961;51.482;9.160;2024-01-30T02:06:34;100512.81;;;3.99;94.97
77770;BME280;66961;51.482;9.160;2024-01-30T02:09:00;100508.09;;;4.05;95.54
77770;BME280;66961;51.482;9.160;2024-01-30T02:11:25;100513.03;;;4.09;94.62
77770;BME280;66961;51.482;9.160;2024-01-30T02:13:51;100511.47;;;4.07;94.85
77770;BME280;66961;51.482;9.160;2024-01-30T02:16:17;100507.25;;;4.04;95.37
77770;BME280;66961;51.482;9.160;2024-01-30T02:18:42;100506.63;;;4.01;94.79
77770;BME280;66961;51.482;9.160;2024-01-30T02:21:08;100498.16;;;4.10;95.40
77770;BME280;66961;51.482;9.160;2024-01-30T02:23:33;100499.81;;;4.11;94.79
77770;BME280;66961;51.482;9.160;2024-01-30T02:25:59;100496.88;;;4.15;94.87
77770;BME280;66961;51.482;9.160;2024-01-30T02:28:24;100498.97;;;4.10;94.46
77770;BME280;66961;51.482;9.160;2024-01-30T02:30:49;100498.66;;;4.02;95.16
77770;BME280;66961;51.482;9.160;2024-01-30T02:33:14;100498.97;;;3.97;96.04
77770;BME280;66961;51.482;9.160;2024-01-30T02:35:40;100493.91;;;3.94;95.61
77770;BME280;66961;51.482;9.160;2024-01-30T02:38:05;100499.06;;;3.96;95.71
77770;BME280;66961;51.482;9.160;2024-01-30T02:40:31;100491.09;;;3.97;96.11
77770;BME280;66961;51.482;9.160;2024-01-30T02:42:58;100493.22;;;4.05;95.67
77770;BME280;66961;51.482;9.160;2024-01-30T02:45:24;100484.19;;;4.09;95.71
77770;BME280;66961;51.482;9.160;2024-01-30T02:47:49;100489.97;;;4.14;95.59
77770;BME280;66961;51.482;9.160;2024-01-30T02:50:14;100476.75;;;4.16;95.21
77770;BME280;66961;51.482;9.160;2024-01-30T02:52:39;100477.78;;;4.13;94.80
77770;BME280;66961;51.482;9.160;2024-01-30T02:55:05;100481.56;;;4.09;95.11
77770;BME280;66961;51.482;9.160;2024-01-30T02:57:30;100479.88;;;4.08;94.74
77770;BME280;66961;51.482;9.160;2024-01-30T02:59:56;100473.38;;;4.01;94.44
77770;BME280;66961;51.482;9.160;2024-01-30T03:02:21;100484.50;;;4.05;95.33
77770;BME280;66961;51.482;9.160;2024-01-30T03:04:46;100476.72;;;4.03;95.08
77770;BME280;66961;51.482;9.160;2024-01-30T03:07:12;100465.09;;;4.07;94.52
77770;BME280;66961;51.482;9.160;2024-01-30T03:09:38;100463.84;;;4.13;94.57
77770;BME280;66961;51.482;9.160;2024-01-30T03:12:04;100457.66;;;4.14;94.94
77770;BME280;66961;51.482;9.160;2024-01-30T03:14:32;100462.06;;;4.13;94.97
77770;BME280;66961;51.482;9.160;2024-01-30T03:16:58;100452.81;;;4.08;94.53
77770;BME280;66961;51.482;9.160;2024-01-30T03:19:23;100453.97;;;4.04;94.63
77770;BME280;66961;51.482;9.160;2024-01-30T03:21:49;100452.81;;;4.08;95.61
77770;BME280;66961;51.482;9.160;2024-01-30T03:24:14;100457.13;;;4.09;95.48
77770;BME280;66961;51.482;9.160;2024-01-30T03:26:39;100446.09;;;4.04;95.52
77770;BME280;66961;51.482;9.160;2024-01-30T03:29:05;100451.22;;;4.05;94.50
77770;BME280;66961;51.482;9.160;2024-01-30T03:31:30;100449.34;;;4.07;94.21
77770;BME280;66961;51.482;9.160;2024-01-30T03:33:55;100437.06;;;4.08;94.68
77770;BME280;66961;51.482;9.160;2024-01-30T03:36:20;100445.69;;;4.10;94.75
77770;BME280;66961;51.482;9.160;2024-01-30T03:38:46;100444.00;;;4.09;94.98
77770;BME280;66961;51.482;9.160;2024-01-30T03:41:11;100445.47;;;4.13;95.17
77770;BME280;66961;51.482;9.160;2024-01-30T03:43:36;100441.91;;;4.14;94.28
77770;BME280;66961;51.482;9.160;2024-01-30T03:46:02;100443.78;;;4.12;94.25
77770;BME280;66961;51.482;9.160;2024-01-30T03:48:28;100441.28;;;4.10;94.66
77770;BME280;66961;51.482;9.160;2024-01-30T03:50:54;100445.78;;;4.08;95.16
77770;BME280;66961;51.482;9.160;2024-01-30T03:53:19;100441.59;;;4.06;95.29
77770;BME280;66961;51.482;9.160;2024-01-30T03:55:45;100436.75;;;3.99;95.43
77770;BME280;66961;51.482;9.160;2024-01-30T03:58:10;100435.81;;;4.01;95.44
77770;BME280;66961;51.482;9.160;2024-01-30T04:00:35;100432.56;;;3.97;95.48
77770;BME280;66961;51.482;9.160;2024-01-30T04:03:00;100431.50;;;3.87;95.45
77770;BME280;66961;51.482;9.160;2024-01-30T04:05:26;100428.88;;;3.87;96.67
77770;BME280;66961;51.482;9.160;2024-01-30T04:07:51;100427.09;;;3.87;96.58
77770;BME280;66961;51.482;9.160;2024-01-30T04:10:16;100430.66;;;3.86;96.23
77770;BME280;66961;51.482;9.160;2024-01-30T04:12:42;100434.72;;;3.78;96.37
77770;BME280;66961;51.482;9.160;2024-01-30T04:15:08;100435.78;;;3.75;97.01
77770;BME280;66961;51.482;9.160;2024-01-30T04:17:33;100435.34;;;3.69;97.74
77770;BME280;66961;51.482;9.160;2024-01-30T04:19:59;100428.84;;;3.74;97.33
77770;BME280;66961;51.482;9.160;2024-01-30T04:22:24;100419.00;;;3.78;97.25
77770;BME280;66961;51.482;9.160;2024-01-30T04:24:49;100421.63;;;3.78;97.23
77770;BME280;66961;51.482;9.160;2024-01-30T04:27:15;100413.13;;;3.74;97.50
77770;BME280;66961;51.482;9.160;2024-01-30T04:29:40;100422.69;;;3.62;97.55
77770;BME280;66961;51.482;9.160;2024-01-30T04:32:05;100430.53;;;3.62;97.96
77770;BME280;66961;51.482;9.160;2024-01-30T04:34:31;100427.28;;;3.59;97.73
77770;BME280;66961;51.482;9.160;2024-01-30T04:36:56;100431.38;;;3.63;97.83
77770;BME280;66961;51.482;9.160;2024-01-30T04:39:22;100433.75;;;3.66;97.56
77770;BME280;66961;51.482;9.160;2024-01-30T04:41:47;100435.13;;;3.72;97.16
77770;BME280;66961;51.482;9.160;2024-01-30T04:44:12;100435.03;;;3.73;97.06
77770;BME280;66961;51.482;9.160;2024-01-30T04:46:37;100429.06;;;3.58;97.30
77770;BME280;66961;51.482;9.160;2024-01-30T04:49:03;100431.03;;;3.55;97.66
77770;BME280;66961;51.482;9.160;2024-01-30T04:51:28;100429.47;;;3.52;98.55
77770;BME280;66961;51.482;9.160;2024-01-30T04:53:53;100427.78;;;3.51;98.68
77770;BME280;66961;51.482;9.160;2024-01-30T04:56:18;100426.31;;;3.47;97.99
77770;BME280;66961;51.482;9.160;2024-01-30T04:58:44;100432.69;;;3.43;98.76
77770;BME280;66961;51.482;9.160;2024-01-30T05:01:09;100435.41;;;3.42;99.74
77770;BME280;66961;51.482;9.160;2024-01-30T05:03:34;100429.00;;;3.33;98.49
77770;BME280;66961;51.482;9.160;2024-01-30T05:05:59;100413.22;;;3.20;100.00
77770;BME280;66961;51.482;9.160;2024-01-30T05:08:25;100427.81;;;3.24;99.34
77770;BME280;66961;51.482;9.160;2024-01-30T05:10:50;100422.03;;;3.19;100.00
77770;BME280;66961;51.482;9.160;2024-01-30T05:13:15;100431.22;;;3.12;100.00
77770;BME280;66961;51.482;9.160;2024-01-30T05:15:40;100429.66;;;3.10;100.00
77770;BME280;66961;51.482;9.160;2024-01-30T05:18:06;100425.25;;;3.10;100.00
77770;BME280;66961;51.482;9.160;2024-01-30T05:20:31;100427.78;;;3.12;100.00
77770;BME280;66961;51.482;9.160;2024-01-30T05:22:56;100431.34;;;3.11;100.00
77770;BME280;66961;51.482;9.160;2024-01-30T05:25:22;100431.22;;;3.12;100.00
77770;BME280;66961;51.482;9.160;2024-01-30T05:27:47;100429.75;;;3.08;100.00
77770;BME280;66961;51.482;9.160;2024-01-30T05:30:12;100437.72;;;3.07;100.00
77770;BME280;66961;51.482;9.160;2024-01-30T05:32:38;100430.81;;;3.06;100.00
77770;BME280;66961;51.482;9.160;2024-01-30T05:35:03;100429.88;;;3.07;100.00
77770;BME280;66961;51.482;9.160;2024-01-30T05:37:29;100435.84;;;3.09;100.00
77770;BME280;66961;51.482;9.160;2024-01-30T05:39:54;100424.94;;;3.15;100.00
77770;BME280;66961;51.482;9.160;2024-01-30T05:42:19;100441.75;;;3.25;100.00
77770;BME280;66961;51.482;9.160;2024-01-30T05:44:44;100441.25;;;3.32;100.00
77770;BME280;66961;51.482;9.160;2024-01-30T05:47:10;100438.53;;;3.34;100.00
77770;BME280;66961;51.482;9.160;2024-01-30T05:49:38;100435.63;;;3.39;100.00
77770;BME280;66961;51.482;9.160;2024-01-30T05:52:03;100428.88;;;3.35;99.67
77770;BME280;66961;51.482;9.160;2024-01-30T05:54:29;100438.13;;;3.40;100.00
77770;BME280;66961;51.482;9.160;2024-01-30T05:56:54;100439.31;;;3.49;99.68
77770;BME280;66961;51.482;9.160;2024-01-30T05:59:19;100437.63;;;3.48;99.37
77770;BME280;66961;51.482;9.160;2024-01-30T06:01:48;100438.47;;;3.48;99.32
77770;BME280;66961;51.482;9.160;2024-01-30T06:04:14;100437.44;;;3.51;98.39
77770;BME280;66961;51.482;9.160;2024-01-30T06:06:40;100438.06;;;3.54;98.65
77770;BME280;66961;51.482;9.160;2024-01-30T06:09:05;100440.09;;;3.63;97.63
77770;BME280;66961;51.482;9.160;2024-01-30T06:11:31;100440.69;;;3.67;97.64
77770;BME280;66961;51.482;9.160;2024-01-30T06:13:56;100440.28;;;3.73;97.68
77770;BME280;66961;51.482;9.160;2024-01-30T06:16:21;100438.28;;;3.77;97.14
77770;BME280;66961;51.482;9.160;2024-01-30T06:18:47;100435.25;;;3.70;96.91
77770;BME280;66961;51.482;9.160;2024-01-30T06:21:12;100439.84;;;3.66;97.30
77770;BME280;66961;51.482;9.160;2024-01-30T06:23:37;100422.53;;;3.51;97.62
77770;BME280;66961;51.482;9.160;2024-01-30T06:26:03;100429.03;;;3.46;97.73
77770;BME280;66961;51.482;9.160;2024-01-30T06:28:28;100429.13;;;3.44;98.18
77770;BME280;66961;51.482;9.160;2024-01-30T06:30:53;100432.19;;;3.51;99.61
77770;BME280;66961;51.482;9.160;2024-01-30T06:33:18;100428.31;;;3.56;98.44
77770;BME280;66961;51.482;9.160;2024-01-30T06:35:44;100429.25;;;3.55;98.62
77770;BME280;66961;51.482;9.160;2024-01-30T06:38:09;100413.09;;;3.49;98.88
77770;BME280;66961;51.482;9.160;2024-01-30T06:40:34;100416.25;;;3.54;99.34
77770;BME280;66961;51.482;9.160;2024-01-30T06:42:59;100417.94;;;3.55;98.82
77770;BME280;66961;51.482;9.160;2024-01-30T06:45:25;100421.41;;;3.55;98.72
77770;BME280;66961;51.482;9.160;2024-01-30T06:47:50;100412.41;;;3.59;99.22
77770;BME280;66961;51.482;9.160;2024-01-30T06:50:15;100414.19;;;3.59;98.59
77770;BME280;66961;51.482;9.160;2024-01-30T06:52:40;100418.47;;;3.60;99.05
77770;BME280;66961;51.482;9.160;2024-01-30T06:55:06;100422.44;;;3.65;98.79
77770;BME280;66961;51.482;9.160;2024-01-30T06:57:31;100413.53;;;3.68;98.68
77770;BME280;66961;51.482;9.160;2024-01-30T06:59:56;100413.13;;;3.61;98.33
77770;BME280;66961;51.482;9.160;2024-01-30T07:02:22;100419.72;;;3.67;98.15
77770;BME280;66961;51.482;9.160;2024-01-30T07:04:47;100425.16;;;3.64;98.30
77770;BME280;66961;51.482;9.160;2024-01-30T07:07:12;100409.34;;;3.53;97.90
77770;BME280;66961;51.482;9.160;2024-01-30T07:09:38;100422.44;;;3.53;98.65
77770;BME280;66961;51.482;9.160;2024-01-30T07:12:03;100424.22;;;3.52;98.01
77770;BME280;66961;51.482;9.160;2024-01-30T07:14:29;100427.19;;;3.60;98.65
77770;BME280;66961;51.482;9.160;2024-01-30T07:16:54;100427.47;;;3.69;97.75
77770;BME280;66961;51.482;9.160;2024-01-30T07:19:19;100410.81;;;3.57;97.22
77770;BME280;66961;51.482;9.160;2024-01-30T07:21:44;100427.78;;;3.64;97.15
77770;BME280;66961;51.482;9.160;2024-01-30T07:24:10;100430.75;;;3.59;97.20
77770;BME280;66961;51.482;9.160;2024-01-30T07:26:35;100420.66;;;3.53;97.56
77770;BME280;66961;51.482;9.160;2024-01-30T07:29:00;100427.78;;;3.51;97.94
77770;BME280;66961;51.482;9.160;2024-01-30T07:31:26;100411.81;;;3.42;98.15
77770;BME280;66961;51.482;9.160;2024-01-30T07:33:51;100416.09;;;3.30;97.79
77770;BME280;66961;51.482;9.160;2024-01-30T07:36:16;100412.00;;;3.26;98.74
77770;BME280;66961;51.482;9.160;2024-01-30T07:38:42;100416.38;;;3.25;98.70
77770;BME280;66961;51.482;9.160;2024-01-30T07:41:07;100413.88;;;3.24;98.59
77770;BME280;66961;51.482;9.160;2024-01-30T07:43:33;100412.94;;;3.25;99.16
77770;BME280;66961;51.482;9.160;2024-01-30T07:45:59;100413.03;;;3.23;99.39
77770;BME280;66961;51.482;9.160;2024-01-30T07:48:24;100425.28;;;3.23;99.05
77770;BME280;66961;51.482;9.160;2024-01-30T07:50:49;100421.81;;;3.22;99.75
77770;BME280;66961;51.482;9.160;2024-01-30T07:53:15;100419.22;;;3.22;99.52
77770;BME280;66961;51.482;9.160;2024-01-30T07:55:40;100418.06;;;3.26;99.27
77770;BME280;66961;51.482;9.160;2024-01-30T07:58:05;100428.25;;;3.31;99.22
77770;BME280;66961;51.482;9.160;2024-01-30T08:00:30;100419.66;;;3.29;99.70
77770;BME280;66961;51.482;9.160;2024-01-30T08:02:56;100429.19;;;3.30;99.18
77770;BME280;66961;51.482;9.160;2024-01-30T08:05:22;100430.88;;;3.31;99.71
77770;BME280;66961;51.482;9.160;2024-01-30T08:07:48;100425.53;;;3.32;99.48
77770;BME280;66961;51.482;9.160;2024-01-30T08:10:14;100438.72;;;3.31;99.93
77770;BME280;66961;51.482;9.160;2024-01-30T08:12:40;100435.72;;;3.37;99.05
77770;BME280;66961;51.482;9.160;2024-01-30T08:15:05;100440.66;;;3.42;99.32
77770;BME280;66961;51.482;9.160;2024-01-30T08:17:31;100444.75;;;3.46;98.94
77770;BME280;66961;51.482;9.160;2024-01-30T08:19:56;100436.06;;;3.45;98.51
77770;BME280;66961;51.482;9.160;2024-01-30T08:22:21;100443.09;;;3.57;97.78
77770;BME280;66961;51.482;9.160;2024-01-30T08:24:46;100452.22;;;3.64;98.06
77770;BME280;66961;51.482;9.160;2024-01-30T08:27:12;100440.09;;;3.63;97.15
77770;BME280;66961;51.482;9.160;2024-01-30T08:29:37;100455.16;;;3.73;96.70
77770;BME280;66961;51.482;9.160;2024-01-30T08:32:04;100455.28;;;3.71;96.74
77770;BME280;66961;51.482;9.160;2024-01-30T08:34:29;100460.13;;;3.77;97.07
77770;BME280;66961;51.482;9.160;2024-01-30T08:36:55;100457.38;;;3.79;95.97
77770;BME280;66961;51.482;9.160;2024-01-30T08:39:20;100452.25;;;3.77;96.36
77770;BME280;66961;51.482;9.160;2024-01-30T08:41:45;100431.38;;;3.63;96.00
77770;BME280;66961;51.482;9.160;2024-01-30T08:44:10;100450.38;;;3.79;95.93
77770;BME280;66961;51.482;9.160;2024-01-30T08:46:36;100451.31;;;3.78;95.94
77770;BME280;66961;51.482;9.160;2024-01-30T08:49:01;100451.09;;;3.81;96.69
77770;BME280;66961;51.482;9.160;2024-01-30T08:51:26;100442.41;;;3.81;96.52
77770;BME280;66961;51.482;9.160;2024-01-30T08:53:51;100441.69;;;3.91;95.99
77770;BME280;66961;51.482;9.160;2024-01-30T08:56:17;100433.28;;;3.99;96.31
77770;BME280;66961;51.482;9.160;2024-01-30T08:58:42;100441.69;;;4.04;96.16
77770;BME280;66961;51.482;9.160;2024-01-30T09:01:07;100438.66;;;4.10;95.56
77770;BME280;66961;51.482;9.160;2024-01-30T09:03:32;100441.78;;;4.15;96.39
77770;BME280;66961;51.482;9.160;2024-01-30T09:05:58;100436.84;;;4.23;95.68
77770;BME280;66961;51.482;9.160;2024-01-30T09:08:23;100438.09;;;4.30;95.46
77770;BME280;66961;51.482;9.160;2024-01-30T09:10:48;100435.88;;;4.37;95.85
77770;BME280;66961;51.482;9.160;2024-01-30T09:13:13;100428.22;;;4.47;95.99
77770;BME280;66961;51.482;9.160;2024-01-30T09:15:39;100433.44;;;4.59;95.63
77770;BME280;66961;51.482;9.160;2024-01-30T09:18:04;100437.19;;;4.68;94.52
77770;BME280;66961;51.482;9.160;2024-01-30T09:20:29;100426.84;;;4.78;95.64
77770;BME280;66961;51.482;9.160;2024-01-30T09:22:55;100445.75;;;4.83;95.10
77770;BME280;66961;51.482;9.160;2024-01-30T09:25:20;100451.41;;;4.89;94.77
77770;BME280;66961;51.482;9.160;2024-01-30T09:27:46;100452.16;;;4.91;94.24
77770;BME280;66961;51.482;9.160;2024-01-30T09:30:12;100454.66;;;4.93;94.17
77770;BME280;66961;51.482;9.160;2024-01-30T09:32:39;100453.50;;;4.97;94.08
77770;BME280;66961;51.482;9.160;2024-01-30T09:35:04;100464.41;;;5.04;93.42
77770;BME280;66961;51.482;9.160;2024-01-30T09:37:30;100452.63;;;5.09;93.02
77770;BME280;66961;51.482;9.160;2024-01-30T09:39:55;100455.06;;;5.23;92.74
77770;BME280;66961;51.482;9.160;2024-01-30T09:42:33;100454.50;;;5.31;92.92
77770;BME280;66961;51.482;9.160;2024-01-30T09:44:59;100447.41;;;5.44;91.96
77770;BME280;66961;51.482;9.160;2024-01-30T09:47:24;100443.81;;;5.45;91.99
77770;BME280;66961;51.482;9.160;2024-01-30T09:49:51;100451.97;;;5.53;92.03
77770;BME280;66961;51.482;9.160;2024-01-30T09:52:16;100446.75;;;5.64;91.36
77770;BME280;66961;51.482;9.160;2024-01-30T09:54:42;100449.16;;;5.68;90.81
77770;BME280;66961;51.482;9.160;2024-01-30T09:57:08;100440.31;;;5.69;90.08
77770;BME280;66961;51.482;9.160;2024-01-30T09:59:33;100432.31;;;5.70;90.60
77770;BME280;66961;51.482;9.160;2024-01-30T10:01:59;100454.94;;;5.84;90.34
77770;BME280;66961;51.482;9.160;2024-01-30T10:04:24;100457.38;;;5.98;89.69
77770;BME280;66961;51.482;9.160;2024-01-30T10:06:50;100443.78;;;6.04;89.64
77770;BME280;66961;51.482;9.160;2024-01-30T10:09:16;100450.84;;;6.15;88.74
77770;BME280;66961;51.482;9.160;2024-01-30T10:11:41;100453.47;;;6.15;89.26
77770;BME280;66961;51.482;9.160;2024-01-30T10:14:06;100444.41;;;6.19;88.96
77770;BME280;66961;51.482;9.160;2024-01-30T10:16:31;100436.84;;;6.14;88.62
77770;BME280;66961;51.482;9.160;2024-01-30T10:18:57;100432.88;;;6.31;88.22
77770;BME280;66961;51.482;9.160;2024-01-30T10:21:23;100441.38;;;6.35;87.93
77770;BME280;66961;51.482;9.160;2024-01-30T10:23:49;100442.34;;;6.34;88.00
77770;BME280;66961;51.482;9.160;2024-01-30T10:26:16;100443.91;;;6.47;88.76
77770;BME280;66961;51.482;9.160;2024-01-30T10:28:41;100427.50;;;6.55;88.49
77770;BME280;66961;51.482;9.160;2024-01-30T10:31:06;100421.88;;;6.59;87.57
77770;BME280;66961;51.482;9.160;2024-01-30T10:33:32;100428.47;;;6.65;87.17
77770;BME280;66961;51.482;9.160;2024-01-30T10:36:04;100426.91;;;6.74;87.78
77770;BME280;66961;51.482;9.160;2024-01-30T10:38:31;100421.22;;;6.89;87.20
77770;BME280;66961;51.482;9.160;2024-01-30T10:41:01;100420.38;;;6.89;86.71
77770;BME280;66961;51.482;9.160;2024-01-30T10:43:35;100407.31;;;6.87;87.47
77770;BME280;66961;51.482;9.160;2024-01-30T10:46:20;100401.69;;;6.92;87.55
77770;BME280;66961;51.482;9.160;2024-01-30T10:48:57;100413.03;;;7.04;87.68
77770;BME280;66961;51.482;9.160;2024-01-30T10:51:23;100401.41;;;7.06;87.30
77770;BME280;66961;51.482;9.160;2024-01-30T10:53:51;100397.22;;;7.04;87.38
77770;BME280;66961;51.482;9.160;2024-01-30T10:56:17;100413.50;;;7.09;86.77
77770;BME280;66961;51.482;9.160;2024-01-30T10:58:45;100407.88;;;7.13;86.91
77770;BME280;66961;51.482;9.160;2024-01-30T11:01:11;100408.25;;;7.09;86.92
77770;BME280;66961;51.482;9.160;2024-01-30T11:03:37;100406.78;;;7.16;86.28
77770;BME280;66961;51.482;9.160;2024-01-30T11:06:03;100402.69;;;7.23;86.27
77770;BME280;66961;51.482;9.160;2024-01-30T11:08:28;100408.09;;;7.21;85.85
77770;BME280;66961;51.482;9.160;2024-01-30T11:10:57;100408.66;;;7.25;86.03
77770;BME280;66961;51.482;9.160;2024-01-30T11:13:26;100413.28;;;7.32;86.38
77770;BME280;66961;51.482;9.160;2024-01-30T11:15:52;100420.34;;;7.32;86.27
77770;BME280;66961;51.482;9.160;2024-01-30T11:18:29;100405.97;;;7.36;85.20
77770;BME280;66961;51.482;9.160;2024-01-30T11:20:56;100396.38;;;7.35;85.32
77770;BME280;66961;51.482;9.160;2024-01-30T11:23:22;100403.31;;;7.15;85.89
77770;BME280;66961;51.482;9.160;2024-01-30T11:25:47;100401.13;;;7.20;86.31
77770;BME280;66961;51.482;9.160;2024-01-30T11:28:14;100428.97;;;7.34;85.98
77770;BME280;66961;51.482;9.160;2024-01-30T11:30:40;100426.75;;;7.50;85.25
77770;BME280;66961;51.482;9.160;2024-01-30T11:33:08;100430.78;;;7.66;83.53
77770;BME280;66961;51.482;9.160;2024-01-30T11:35:36;100413.97;;;7.67;83.66
77770;BME280;66961;51.482;9.160;2024-01-30T11:38:02;100411.81;;;7.81;82.95
77770;BME280;66961;51.482;9.160;2024-01-30T11:40:28;100405.94;;;8.19;81.26
77770;BME280;66961;51.482;9.160;2024-01-30T11:42:55;100390.69;;;8.23;80.87
77770;BME280;66961;51.482;9.160;2024-01-30T11:45:20;100396.47;;;8.47;80.55
77770;BME280;66961;51.482;9.160;2024-01-30T11:47:46;100399.34;;;8.35;80.45
77770;BME280;66961;51.482;9.160;2024-01-30T11:50:11;100392.34;;;8.24;80.82
77770;BME280;66961;51.482;9.160;2024-01-30T11:52:37;100385.34;;;8.13;81.64
77770;BME280;66961;51.482;9.160;2024-01-30T11:55:03;100383.81;;;8.11;82.77
77770;BME280;66961;51.482;9.160;2024-01-30T11:57:28;100388.44;;;8.18;82.60
77770;BME280;66961;51.482;9.160;2024-01-30T11:59:53;100380.28;;;8.01;82.53
77770;BME280;66961;51.482;9.160;2024-01-30T12:02:19;100388.16;;;8.21;81.97
77770;BME280;66961;51.482;9.160;2024-01-30T12:04:44;100369.84;;;8.29;82.44
77770;BME280;66961;51.482;9.160;2024-01-30T12:07:10;100369.50;;;8.44;81.89
77770;BME280;66961;51.482;9.160;2024-01-30T12:09:36;100370.09;;;8.57;81.70
77770;BME280;66961;51.482;9.160;2024-01-30T12:12:01;100376.97;;;8.79;80.42
77770;BME280;66961;51.482;9.160;2024-01-30T12:14:26;100377.94;;;8.87;80.01
77770;BME280;66961;51.482;9.160;2024-01-30T12:16:52;100378.13;;;9.24;79.78
77770;BME280;66961;51.482;9.160;2024-01-30T12:19:26;100385.47;;;9.40;77.72
77770;BME280;66961;51.482;9.160;2024-01-30T12:21:59;100379.59;;;9.66;77.70
77770;BME280;66961;51.482;9.160;2024-01-30T12:24:27;100369.38;;;9.90;76.73
77770;BME280;66961;51.482;9.160;2024-01-30T12:26:57;100376.16;;;10.02;74.59
77770;BME280;66961;51.482;9.160;2024-01-30T12:29:22;100381.56;;;10.10;74.13
77770;BME280;66961;51.482;9.160;2024-01-30T12:31:47;100386.69;;;10.31;74.09
77770;BME280;66961;51.482;9.160;2024-01-30T12:34:16;100391.16;;;10.58;73.35
77770;BME280;66961;51.482;9.160;2024-01-30T12:36:41;100402.56;;;10.68;70.91
77770;BME280;66961;51.482;9.160;2024-01-30T12:39:11;100387.88;;;10.46;72.88
77770;BME280;66961;51.482;9.160;2024-01-30T12:41:36;100400.69;;;10.51;71.82
77770;BME280;66961;51.482;9.160;2024-01-30T12:44:01;100403.56;;;10.30;72.95
77770;BME280;66961;51.482;9.160;2024-01-30T12:46:29;100404.44;;;10.21;73.57
77770;BME280;66961;51.482;9.160;2024-01-30T12:48:55;100409.31;;;10.16;72.85
77770;BME280;66961;51.482;9.160;2024-01-30T12:51:20;100392.34;;;9.99;74.36